Time;durP1;ratioP1;P1;durP2;ratioP2;P2;SDS_P1;SDS_P2;PMS_P1;PMS_P2;Temp;Humidity;BMP_temperature;BMP_pressure;BME280_temperature;BME280_humidity;BME280_pressure;Samples;Min_cycle;Max_cycle;Signal;HPM_P1;HPM_P2
2023/01/27 00:00:28;;;;;;;4.78;2.00;;;;;;;;;;4966186;28;20444;-71
2023/01/27 00:02:54;;;;;;;6.53;1.30;;;;;;;;;;4961038;28;20030;-71
2023/01/27 00:05:19;;;;;;;4.30;1.13;;;;;;;;;;4954852;28;20055;-71
2023/01/27 00:07:48;;;;;;;10.02;1.85;;;;;;;;;;4953765;28;20074;-71
2023/01/27 00:10:16;;;;;;;4.65;0.93;;;;;;;;;;4966313;28;20039;-70
2023/01/27 00:15:27;;;;;;;6.13;1.45;;;;;;;;;;4966236;28;20065;-71
2023/01/27 00:17:53;;;;;;;11.50;1.20;;;;;;;;;;4967152;28;20608;-71
2023/01/27 00:25:49;;;;;;;;;;;;;;;;;;4966154;28;20523;-71
2023/01/27 00:28:21;;;;;;;5.05;0.68;;;;;;;;;;4966754;28;19941;-71
2023/01/27 00:30:48;;;;;;;5.40;0.88;;;;;;;;;;4962870;28;20097;-71
2023/01/27 00:33:28;;;;;;;3.20;0.98;;;;;;;;;;4946509;28;20023;-71
2023/01/27 00:35:58;;;;;;;5.90;1.00;;;;;;;;;;4965830;28;20089;-71
2023/01/27 00:38:24;;;;;;;5.40;1.35;;;;;;;;;;4966496;28;20520;-71
2023/01/27 00:41:14;;;;;;;1.55;0.88;;;;;;;;;;4967763;28;20035;-71
2023/01/27 00:43:35;;;;;;;5.63;2.28;;;;;;;;;;4971857;28;20455;-71
2023/01/27 00:46:00;;;;;;;7.95;0.95;;;;;;;;;;4971188;28;20042;-71
2023/01/27 00:48:26;;;;;;;7.72;1.10;;;;;;;;;;4972492;28;20023;-71
2023/01/27 00:50:51;;;;;;;8.77;1.20;;;;;;;;;;4972843;28;20392;-71
2023/01/27 00:53:16;;;;;;;9.75;0.88;;;;;;;;;;4972833;28;20074;-71
2023/01/27 00:55:42;;;;;;;4.80;1.00;;;;;;;;;;4953537;28;20078;-71
2023/01/27 00:58:07;;;;;;;4.13;0.95;;;;;;;;;;4942384;28;20031;-71
2023/01/27 01:00:32;;;;;;;2.60;1.25;;;;;;;;;;4972625;28;20034;-71
2023/01/27 01:02:58;;;;;;;6.38;1.58;;;;;;;;;;4987579;28;20022;-71
2023/01/27 01:05:23;;;;;;;5.30;1.10;;;;;;;;;;4972933;28;20134;-71
2023/01/27 01:07:48;;;;;;;2.50;0.90;;;;;;;;;;4968543;28;20035;-71
2023/01/27 01:10:14;;;;;;;7.82;1.55;;;;;;;;;;4962605;28;20089;-71
2023/01/27 01:12:39;;;;;;;4.28;1.05;;;;;;;;;;4967508;28;20023;-71
2023/01/27 01:15:05;;;;;;;3.15;0.95;;;;;;;;;;4972370;28;20049;-71
2023/01/27 01:17:31;;;;;;;8.77;0.90;;;;;;;;;;4972483;28;20063;-71
2023/01/27 01:19:56;;;;;;;2.55;0.88;;;;;;;;;;4952707;28;20039;-71
2023/01/27 01:22:21;;;;;;;5.10;0.90;;;;;;;;;;4964730;28;20919;-71
2023/01/27 01:24:47;;;;;;;3.13;1.05;;;;;;;;;;4954680;28;20043;-71
2023/01/27 01:27:12;;;;;;;2.95;0.75;;;;;;;;;;4972896;28;20038;-71
2023/01/27 01:29:37;;;;;;;3.75;0.98;;;;;;;;;;4971417;28;20037;-71
2023/01/27 01:32:03;;;;;;;9.02;1.17;;;;;;;;;;4972341;28;20031;-71
2023/01/27 01:34:28;;;;;;;4.57;1.08;;;;;;;;;;4969392;28;20574;-71
2023/01/27 01:36:54;;;;;;;11.35;1.35;;;;;;;;;;4953822;28;20117;-71
2023/01/27 01:39:19;;;;;;;5.18;1.30;;;;;;;;;;4955341;28;20023;-71
2023/01/27 01:41:45;;;;;;;8.02;1.27;;;;;;;;;;4972044;28;20086;-71
2023/01/27 01:44:31;;;;;;;2.25;0.77;;;;;;;;;;4970447;28;20034;-71
2023/01/27 01:46:57;;;;;;;7.88;1.20;;;;;;;;;;4971154;28;20146;-71
2023/01/27 01:49:35;;;;;;;6.10;0.98;;;;;;;;;;4963628;28;20113;-71
2023/01/27 01:52:07;;;;;;;3.72;1.00;;;;;;;;;;4967913;28;20066;-71
2023/01/27 01:54:37;;;;;;;5.80;0.80;;;;;;;;;;4956728;28;20058;-71
2023/01/27 01:57:18;;;;;;;2.03;0.75;;;;;;;;;;4946838;28;20420;-71
2023/01/27 01:59:47;;;;;;;10.95;1.40;;;;;;;;;;4962780;28;20057;-71
2023/01/27 02:02:15;;;;;;;8.90;1.25;;;;;;;;;;4968803;28;20188;-71
2023/01/27 02:04:53;;;;;;;3.15;0.77;;;;;;;;;;4967207;28;20070;-71
2023/01/27 02:07:24;;;;;;;11.50;1.33;;;;;;;;;;4969082;28;20113;-71
2023/01/27 02:09:49;;;;;;;4.45;1.92;;;;;;;;;;4968419;28;20069;-71
2023/01/27 02:12:14;;;;;;;6.13;1.02;;;;;;;;;;4984382;28;20054;-71
2023/01/27 02:14:40;;;;;;;9.55;1.25;;;;;;;;;;4950946;28;20041;-71
2023/01/27 02:17:08;;;;;;;10.35;1.83;;;;;;;;;;4955881;28;20046;-71
2023/01/27 02:19:54;;;;;;;5.60;0.88;;;;;;;;;;4968477;28;20105;-71
2023/01/27 02:22:26;;;;;;;1.85;0.98;;;;;;;;;;4959000;28;20135;-71
2023/01/27 02:24:58;;;;;;;6.97;1.40;;;;;;;;;;4962255;28;20110;-71
2023/01/27 02:27:23;;;;;;;7.35;1.20;;;;;;;;;;4951070;28;20069;-71
2023/01/27 02:29:49;;;;;;;5.78;1.33;;;;;;;;;;4968823;28;20138;-71
2023/01/27 02:32:24;;;;;;;5.80;1.13;;;;;;;;;;4968035;28;20118;-71
2023/01/27 02:34:52;;;;;;;9.02;1.40;;;;;;;;;;4950469;28;20046;-71
2023/01/27 02:37:18;;;;;;;5.20;1.23;;;;;;;;;;4968524;28;20114;-71
2023/01/27 02:39:46;;;;;;;9.65;1.10;;;;;;;;;;4959538;28;20058;-71
2023/01/27 02:42:14;;;;;;;1.73;0.93;;;;;;;;;;4965119;28;20510;-71
2023/01/27 02:44:39;;;;;;;2.50;1.35;;;;;;;;;;4968339;28;20023;-71
2023/01/27 02:47:04;;;;;;;10.32;1.55;;;;;;;;;;4966947;28;20054;-71
2023/01/27 02:49:29;;;;;;;7.88;1.48;;;;;;;;;;4968215;28;20037;-71
2023/01/27 02:51:55;;;;;;;6.50;1.40;;;;;;;;;;4950040;28;20072;-71
2023/01/27 02:54:23;;;;;;;5.50;1.27;;;;;;;;;;4978887;28;20019;-71
2023/01/27 02:56:48;;;;;;;8.15;2.08;;;;;;;;;;4945452;28;20047;-71
2023/01/27 02:59:13;;;;;;;4.90;1.10;;;;;;;;;;4960238;28;20035;-71
2023/01/27 03:01:38;;;;;;;12.85;1.92;;;;;;;;;;4962970;28;20029;-71
2023/01/27 03:04:04;;;;;;;10.43;2.08;;;;;;;;;;4966490;28;20507;-71
2023/01/27 03:06:30;;;;;;;11.55;2.45;;;;;;;;;;4966946;28;20018;-71
2023/01/27 03:08:55;;;;;;;8.82;2.10;;;;;;;;;;4967992;28;20122;-70
2023/01/27 03:14:05;;;;;;;;;;;;;;;;;;4967668;28;20530;-71
2023/01/27 03:19:14;;;;;;;11.10;2.00;;;;;;;;;;4956348;28;20592;-71
2023/01/27 03:21:40;;;;;;;5.10;1.65;;;;;;;;;;4966968;28;20101;-71
2023/01/27 03:24:05;;;;;;;8.23;2.28;;;;;;;;;;4983379;28;20043;-71
2023/01/27 03:26:30;;;;;;;9.43;1.63;;;;;;;;;;4966911;28;20062;-71
2023/01/27 03:31:40;;;;;;;8.48;1.83;;;;;;;;;;4967040;28;20086;-71
2023/01/27 03:34:05;;;;;;;8.45;2.40;;;;;;;;;;4966128;28;20031;-71
2023/01/27 03:47:26;;;;;;;11.25;2.30;;;;;;;;;;4966045;28;20790;-71
2023/01/27 03:49:51;;;;;;;7.45;1.75;;;;;;;;;;4967053;28;20034;-71
2023/01/27 03:52:16;;;;;;;12.88;2.22;;;;;;;;;;4966755;28;20555;-71
2023/01/27 03:54:41;;;;;;;8.48;2.10;;;;;;;;;;4966969;28;20440;-71
2023/01/27 03:57:07;;;;;;;4.57;1.52;;;;;;;;;;4967065;28;20050;-71
2023/01/27 03:59:33;;;;;;;7.53;1.92;;;;;;;;;;4966874;28;20051;-71
2023/01/27 04:07:27;;;;;;;;;;;;;;;;;;4967277;28;20077;-71
2023/01/27 04:09:52;;;;;;;7.50;2.10;;;;;;;;;;4965997;28;19913;-71
2023/01/27 04:12:18;;;;;;;4.20;1.50;;;;;;;;;;4966051;28;20027;-71
2023/01/27 04:14:43;;;;;;;8.20;2.20;;;;;;;;;;4959034;28;20031;-71
2023/01/27 04:17:14;;;;;;;6.47;1.77;;;;;;;;;;4948516;28;20035;-71
2023/01/27 04:19:39;;;;;;;6.88;2.17;;;;;;;;;;4966391;28;20050;-71
2023/01/27 04:22:05;;;;;;;5.05;1.83;;;;;;;;;;4966872;28;20027;-71
2023/01/27 04:24:31;;;;;;;4.47;2.30;;;;;;;;;;4965791;28;20407;-71
2023/01/27 04:26:58;;;;;;;7.72;2.38;;;;;;;;;;4963095;28;20095;-71
2023/01/27 04:29:29;;;;;;;5.88;1.70;;;;;;;;;;4961937;28;20046;-71
2023/01/27 04:31:56;;;;;;;7.90;1.77;;;;;;;;;;4958836;28;20700;-71
2023/01/27 04:34:22;;;;;;;5.28;1.70;;;;;;;;;;4966368;28;20046;-71
2023/01/27 04:36:47;;;;;;;4.22;1.75;;;;;;;;;;4965959;28;20038;-71
2023/01/27 04:39:13;;;;;;;4.32;1.90;;;;;;;;;;4965900;28;20018;-71
2023/01/27 04:41:39;;;;;;;7.57;2.45;;;;;;;;;;4966302;28;20054;-71
2023/01/27 04:44:05;;;;;;;8.57;2.45;;;;;;;;;;4948398;28;20043;-71
2023/01/27 04:46:31;;;;;;;7.25;2.85;;;;;;;;;;4965929;28;20420;-71
2023/01/27 04:48:56;;;;;;;6.85;2.38;;;;;;;;;;4965351;28;20031;-71
2023/01/27 04:51:22;;;;;;;5.25;2.15;;;;;;;;;;4966607;28;20034;-71
2023/01/27 04:53:47;;;;;;;3.15;1.58;;;;;;;;;;4966672;28;20031;-71
2023/01/27 04:56:36;;;;;;;7.65;2.47;;;;;;;;;;4966060;28;20214;-71
2023/01/27 04:59:09;;;;;;;6.18;2.30;;;;;;;;;;4965818;28;20046;-71
2023/01/27 05:01:34;;;;;;;4.32;1.75;;;;;;;;;;4951561;28;20097;-71
2023/01/27 05:03:59;;;;;;;7.07;1.92;;;;;;;;;;4980806;28;20034;-71
2023/01/27 05:06:25;;;;;;;5.40;1.98;;;;;;;;;;4965449;28;20019;-71
2023/01/27 05:08:51;;;;;;;3.78;2.15;;;;;;;;;;4949054;28;20023;-71
2023/01/27 05:11:17;;;;;;;5.07;2.25;;;;;;;;;;4959803;28;20038;-71
2023/01/27 05:13:43;;;;;;;4.95;2.67;;;;;;;;;;4948778;28;20218;-71
2023/01/27 05:16:20;;;;;;;10.77;2.40;;;;;;;;;;4965593;28;20748;-71
2023/01/27 05:18:47;;;;;;;8.00;2.33;;;;;;;;;;4968753;28;20146;-71
2023/01/27 05:21:16;;;;;;;5.75;2.03;;;;;;;;;;4946933;28;20019;-71
2023/01/27 05:23:41;;;;;;;5.13;1.50;;;;;;;;;;4965704;28;20035;-71
2023/01/27 05:26:12;;;;;;;8.50;2.95;;;;;;;;;;4966237;28;20085;-71
2023/01/27 05:28:39;;;;;;;10.30;2.50;;;;;;;;;;4968926;28;20118;-71
2023/01/27 05:31:14;;;;;;;5.60;2.58;;;;;;;;;;4967749;28;20746;-71
2023/01/27 05:33:40;;;;;;;6.75;2.78;;;;;;;;;;4970211;28;20707;-71
2023/01/27 05:36:07;;;;;;;10.35;3.08;;;;;;;;;;4968983;28;20019;-71
2023/01/27 05:38:33;;;;;;;4.13;2.08;;;;;;;;;;4969687;28;20070;-71
2023/01/27 05:41:02;;;;;;;9.32;2.92;;;;;;;;;;4983772;28;20451;-71
2023/01/27 05:43:37;;;;;;;5.60;3.13;;;;;;;;;;4968233;28;20031;-71
2023/01/27 05:46:06;;;;;;;6.88;3.20;;;;;;;;;;4956285;28;20066;-71
2023/01/27 05:48:34;;;;;;;8.52;2.90;;;;;;;;;;4969835;28;20054;-71
2023/01/27 05:50:59;;;;;;;4.78;1.58;;;;;;;;;;4969175;28;20025;-71
2023/01/27 05:53:25;;;;;;;6.05;2.92;;;;;;;;;;4951610;28;20039;-71
2023/01/27 05:55:51;;;;;;;7.10;3.25;;;;;;;;;;4968361;28;20035;-71
2023/01/27 05:58:16;;;;;;;6.97;3.00;;;;;;;;;;4956378;28;20039;-71
2023/01/27 06:00:42;;;;;;;9.45;4.00;;;;;;;;;;4969334;28;20050;-71
2023/01/27 06:03:08;;;;;;;6.07;3.35;;;;;;;;;;4960825;28;20379;-71
2023/01/27 06:05:33;;;;;;;5.25;1.88;;;;;;;;;;4965536;28;20443;-71
2023/01/27 06:07:59;;;;;;;9.65;3.65;;;;;;;;;;4969170;28;20038;-71
2023/01/27 06:10:24;;;;;;;9.10;3.80;;;;;;;;;;4966781;28;20035;-70
2023/01/27 06:12:49;;;;;;;10.02;3.22;;;;;;;;;;4963845;28;20037;-71
2023/01/27 06:15:15;;;;;;;12.68;3.45;;;;;;;;;;4968958;28;20022;-71
2023/01/27 06:17:40;;;;;;;7.50;2.92;;;;;;;;;;4968455;28;20037;-71
2023/01/27 06:20:05;;;;;;;10.00;2.97;;;;;;;;;;4962649;28;20130;-71
2023/01/27 06:22:31;;;;;;;6.32;2.50;;;;;;;;;;4965292;28;20411;-71
2023/01/27 06:24:56;;;;;;;8.15;3.50;;;;;;;;;;4983766;28;20041;-71
2023/01/27 06:27:21;;;;;;;6.90;3.42;;;;;;;;;;4967818;28;20017;-71
2023/01/27 06:29:47;;;;;;;6.93;3.17;;;;;;;;;;4968302;28;20404;-71
2023/01/27 06:32:12;;;;;;;9.27;2.83;;;;;;;;;;4982222;28;20125;-71
2023/01/27 06:34:37;;;;;;;8.88;3.60;;;;;;;;;;4963077;28;20038;-71
2023/01/27 06:37:03;;;;;;;7.72;2.95;;;;;;;;;;4967845;28;20772;-71
2023/01/27 06:39:28;;;;;;;15.65;2.75;;;;;;;;;;4966556;28;20164;-71
2023/01/27 06:41:54;;;;;;;10.20;3.63;;;;;;;;;;4967354;28;20093;-71
2023/01/27 06:44:19;;;;;;;5.60;2.78;;;;;;;;;;4952560;28;20416;-71
2023/01/27 06:46:44;;;;;;;15.48;3.83;;;;;;;;;;4954787;28;20062;-71
2023/01/27 06:49:10;;;;;;;8.13;3.10;;;;;;;;;;4949056;28;20086;-71
2023/01/27 06:51:35;;;;;;;6.50;2.83;;;;;;;;;;4948839;28;20105;-71
2023/01/27 06:54:00;;;;;;;7.47;3.15;;;;;;;;;;4949887;28;20726;-71
2023/01/27 06:56:25;;;;;;;8.52;3.75;;;;;;;;;;4948273;28;20096;-71
2023/01/27 06:58:51;;;;;;;7.97;3.10;;;;;;;;;;4935566;28;20035;-71
2023/01/27 07:01:16;;;;;;;7.15;3.17;;;;;;;;;;4948321;28;20093;-71
2023/01/27 07:03:41;;;;;;;7.28;3.00;;;;;;;;;;4946960;28;20405;-71
2023/01/27 07:06:07;;;;;;;9.45;3.53;;;;;;;;;;4931648;29;20015;-71
2023/01/27 07:08:32;;;;;;;10.55;3.58;;;;;;;;;;4931158;29;20250;-71
2023/01/27 07:11:02;;;;;;;7.93;3.15;;;;;;;;;;4928361;29;20556;-71
2023/01/27 07:13:27;;;;;;;7.82;3.50;;;;;;;;;;4947649;28;20532;-71
2023/01/27 07:15:54;;;;;;;6.57;3.28;;;;;;;;;;4929571;28;20051;-70
2023/01/27 07:18:19;;;;;;;10.23;3.60;;;;;;;;;;4942050;28;20676;-71
2023/01/27 07:20:45;;;;;;;9.20;3.63;;;;;;;;;;4948589;28;20050;-71
2023/01/27 07:23:10;;;;;;;12.70;4.22;;;;;;;;;;4947349;28;20118;-71
2023/01/27 07:25:36;;;;;;;8.48;3.65;;;;;;;;;;4931063;29;20528;-71
2023/01/27 07:28:02;;;;;;;13.10;5.00;;;;;;;;;;4930659;29;20410;-71
2023/01/27 07:30:28;;;;;;;13.70;3.50;;;;;;;;;;4941472;28;20535;-71
2023/01/27 07:32:56;;;;;;;9.23;3.53;;;;;;;;;;4919341;28;20028;-71
2023/01/27 07:35:22;;;;;;;8.82;2.72;;;;;;;;;;4942977;28;20040;-71
2023/01/27 07:37:47;;;;;;;5.75;2.78;;;;;;;;;;4945379;28;20055;-71
2023/01/27 07:40:12;;;;;;;10.10;4.43;;;;;;;;;;4947370;28;20039;-71
2023/01/27 07:42:39;;;;;;;7.35;3.13;;;;;;;;;;4947513;28;20023;-71
2023/01/27 07:45:05;;;;;;;11.20;3.53;;;;;;;;;;4947321;28;20416;-71
2023/01/27 07:47:30;;;;;;;6.82;2.67;;;;;;;;;;4965157;28;20735;-71
2023/01/27 07:49:55;;;;;;;10.57;2.72;;;;;;;;;;4976223;28;20043;-71
2023/01/27 07:52:20;;;;;;;8.60;3.45;;;;;;;;;;4964372;28;20591;-71
2023/01/27 07:54:46;;;;;;;8.68;2.88;;;;;;;;;;4943054;28;20038;-71
2023/01/27 07:57:11;;;;;;;12.32;4.32;;;;;;;;;;4975367;28;20038;-71
2023/01/27 07:59:37;;;;;;;8.50;3.50;;;;;;;;;;4959190;28;20043;-71
2023/01/27 08:02:02;;;;;;;5.60;2.67;;;;;;;;;;4976918;28;20039;-71
2023/01/27 08:04:27;;;;;;;10.50;4.38;;;;;;;;;;4967318;28;20058;-71
2023/01/27 08:06:53;;;;;;;13.32;4.90;;;;;;;;;;4965447;28;20042;-71
2023/01/27 08:09:18;;;;;;;11.80;4.38;;;;;;;;;;4949938;28;20030;-71
2023/01/27 08:11:43;;;;;;;4.00;2.33;;;;;;;;;;4960177;28;20031;-71
2023/01/27 08:14:09;;;;;;;12.60;4.80;;;;;;;;;;4965344;28;20053;-71
2023/01/27 08:16:34;;;;;;;16.80;4.03;;;;;;;;;;4963621;28;20039;-71
2023/01/27 08:18:59;;;;;;;10.80;3.85;;;;;;;;;;4963232;28;20096;-71
2023/01/27 08:21:26;;;;;;;11.85;4.03;;;;;;;;;;4961133;28;20534;-71
2023/01/27 08:23:54;;;;;;;11.77;4.05;;;;;;;;;;4979528;28;20566;-71
2023/01/27 08:26:20;;;;;;;9.15;3.45;;;;;;;;;;4961342;28;20420;-71
2023/01/27 08:28:45;;;;;;;12.68;3.45;;;;;;;;;;4963981;28;20043;-71
2023/01/27 08:31:14;;;;;;;11.32;4.72;;;;;;;;;;4966447;28;20097;-71
2023/01/27 08:33:40;;;;;;;11.55;4.18;;;;;;;;;;4946684;28;20476;-71
2023/01/27 08:36:11;;;;;;;12.13;4.65;;;;;;;;;;4949349;28;20097;-71
2023/01/27 08:38:37;;;;;;;10.38;3.95;;;;;;;;;;4955543;28;20030;-71
2023/01/27 08:41:05;;;;;;;11.25;3.60;;;;;;;;;;4966123;28;20050;-71
2023/01/27 08:43:30;;;;;;;9.82;4.57;;;;;;;;;;4963000;28;20137;-71
2023/01/27 08:45:56;;;;;;;15.82;4.53;;;;;;;;;;4966122;28;20063;-71
2023/01/27 08:48:22;;;;;;;15.73;4.18;;;;;;;;;;4948512;28;20029;-71
2023/01/27 08:50:48;;;;;;;12.60;4.32;;;;;;;;;;4946548;28;20030;-71
2023/01/27 08:53:14;;;;;;;14.25;4.50;;;;;;;;;;4976176;28;20049;-71
2023/01/27 08:55:39;;;;;;;13.05;4.68;;;;;;;;;;4957680;28;20039;-71
2023/01/27 08:58:04;;;;;;;11.88;4.95;;;;;;;;;;4952714;28;20062;-71
2023/01/27 09:00:30;;;;;;;14.45;4.35;;;;;;;;;;4966330;28;20023;-71
2023/01/27 09:02:55;;;;;;;11.07;5.18;;;;;;;;;;4969317;28;20027;-71
2023/01/27 09:05:21;;;;;;;11.38;4.43;;;;;;;;;;4963777;28;20043;-71
2023/01/27 09:07:47;;;;;;;13.75;3.90;;;;;;;;;;4964607;28;20047;-71
2023/01/27 09:10:13;;;;;;;11.57;4.53;;;;;;;;;;4956690;28;20089;-71
2023/01/27 09:12:39;;;;;;;12.05;4.38;;;;;;;;;;4960211;28;20034;-71
2023/01/27 09:15:05;;;;;;;15.05;4.70;;;;;;;;;;4968026;28;20043;-73
2023/01/27 09:17:31;;;;;;;11.45;4.57;;;;;;;;;;4926783;28;20057;-72
2023/01/27 09:19:56;;;;;;;8.60;3.95;;;;;;;;;;4911392;28;20057;-72
2023/01/27 09:22:21;;;;;;;12.10;5.22;;;;;;;;;;4927047;28;20431;-72
2023/01/27 09:24:47;;;;;;;11.27;4.68;;;;;;;;;;4939136;28;20471;-72
2023/01/27 09:27:12;;;;;;;10.43;4.22;;;;;;;;;;4950349;28;20101;-72
2023/01/27 09:29:38;;;;;;;10.52;4.18;;;;;;;;;;4963982;28;20050;-72
2023/01/27 09:32:04;;;;;;;16.63;4.20;;;;;;;;;;4943539;28;20069;-72
2023/01/27 09:34:29;;;;;;;12.77;4.28;;;;;;;;;;4963460;28;20063;-72
2023/01/27 09:37:09;;;;;;;12.07;4.53;;;;;;;;;;4955110;28;20092;-72
2023/01/27 09:39:38;;;;;;;13.88;5.10;;;;;;;;;;4946967;28;20034;-72
2023/01/27 09:42:12;;;;;;;12.73;3.97;;;;;;;;;;4964620;28;20519;-72
2023/01/27 09:45:05;;;;;;;12.75;4.18;;;;;;;;;;4962961;28;20046;-72
2023/01/27 09:47:49;;;;;;;12.90;4.70;;;;;;;;;;4958391;28;20055;-72
2023/01/27 09:50:59;;;;;;;14.80;4.80;;;;;;;;;;4947321;28;20518;-71
2023/01/27 09:53:43;;;;;;;12.00;4.50;;;;;;;;;;4863547;29;20730;-71
2023/01/27 09:56:08;;;;;;;11.45;4.47;;;;;;;;;;4960756;28;20539;-71
2023/01/27 09:59:05;;;;;;;13.50;5.07;;;;;;;;;;4956018;28;20067;-71
2023/01/27 10:02:06;;;;;;;10.27;4.05;;;;;;;;;;4961218;28;20535;-71
2023/01/27 10:05:00;;;;;;;10.27;4.20;;;;;;;;;;4927896;28;20035;-71
2023/01/27 10:07:32;;;;;;;10.18;4.13;;;;;;;;;;4949114;28;20098;-70
2023/01/27 10:10:09;;;;;;;13.25;4.53;;;;;;;;;;4958585;28;20047;-70
2023/01/27 10:12:48;;;;;;;8.38;3.78;;;;;;;;;;4962456;28;20540;-71
2023/01/27 10:15:32;;;;;;;10.50;3.75;;;;;;;;;;4946577;28;20027;-71
2023/01/27 10:18:07;;;;;;;13.68;4.40;;;;;;;;;;4944581;28;20049;-71
2023/01/27 10:20:59;;;;;;;12.32;4.93;;;;;;;;;;4949791;28;20047;-70
2023/01/27 10:23:50;;;;;;;8.73;3.65;;;;;;;;;;4957152;28;20569;-71
2023/01/27 10:26:32;;;;;;;13.10;4.10;;;;;;;;;;4965294;28;20046;-70
2023/01/27 10:29:10;;;;;;;12.07;4.13;;;;;;;;;;4935786;28;20043;-70
2023/01/27 10:31:47;;;;;;;10.13;3.80;;;;;;;;;;4960207;28;20039;-70
2023/01/27 10:34:36;;;;;;;9.02;3.83;;;;;;;;;;4962580;28;20105;-70
2023/01/27 10:37:20;;;;;;;9.88;3.83;;;;;;;;;;4944298;28;20042;-70
2023/01/27 10:40:06;;;;;;;7.78;3.95;;;;;;;;;;4967081;28;20101;-70
2023/01/27 10:42:41;;;;;;;10.75;4.32;;;;;;;;;;4964318;28;20081;-71
2023/01/27 10:45:16;;;;;;;15.90;4.35;;;;;;;;;;4964493;28;20019;-70
2023/01/27 10:47:57;;;;;;;9.23;3.33;;;;;;;;;;4949580;28;20468;-70
2023/01/27 10:50:29;;;;;;;10.65;3.78;;;;;;;;;;4959409;28;20170;-70
2023/01/27 10:53:00;;;;;;;10.27;4.15;;;;;;;;;;4968969;28;20484;-70
2023/01/27 10:55:37;;;;;;;9.75;3.78;;;;;;;;;;4968299;28;20248;-70
2023/01/27 10:58:15;;;;;;;9.48;4.15;;;;;;;;;;4957988;28;20122;-71
2023/01/27 11:00:45;;;;;;;9.57;3.80;;;;;;;;;;4942203;28;20018;-70
2023/01/27 11:03:13;;;;;;;13.07;5.20;;;;;;;;;;4964678;28;20504;-70
2023/01/27 11:05:44;;;;;;;10.80;4.30;;;;;;;;;;4965621;28;20604;-70
2023/01/27 11:08:16;;;;;;;11.20;4.97;;;;;;;;;;4965673;28;20065;-71
2023/01/27 11:13:31;;;;;;;12.85;4.00;;;;;;;;;;4970551;28;20411;-70
2023/01/27 11:15:57;;;;;;;9.90;3.95;;;;;;;;;;4966468;28;20038;-70
2023/01/27 11:18:27;;;;;;;12.98;4.50;;;;;;;;;;4946207;28;20022;-71
2023/01/27 11:20:56;;;;;;;9.32;3.58;;;;;;;;;;4956894;28;20110;-71
2023/01/27 11:23:27;;;;;;;9.15;3.65;;;;;;;;;;4958837;28;20031;-71
2023/01/27 11:26:20;;;;;;;6.30;2.95;;;;;;;;;;4965428;28;20042;-71
2023/01/27 11:29:06;;;;;;;8.55;3.88;;;;;;;;;;4944431;28;20066;-71
2023/01/27 11:31:38;;;;;;;10.27;4.28;;;;;;;;;;4965176;28;20043;-70
2023/01/27 11:34:03;;;;;;;8.43;3.55;;;;;;;;;;4948166;28;20692;-71
2023/01/27 11:36:29;;;;;;;9.98;3.83;;;;;;;;;;4949185;28;20491;-71
2023/01/27 11:38:57;;;;;;;6.65;3.60;;;;;;;;;;4949412;28;20035;-71
2023/01/27 11:41:23;;;;;;;10.90;4.07;;;;;;;;;;4959714;28;20023;-71
2023/01/27 11:43:49;;;;;;;9.57;3.63;;;;;;;;;;4959645;28;20623;-71
2023/01/27 11:46:20;;;;;;;10.63;4.20;;;;;;;;;;4961750;28;20049;-71
2023/01/27 11:48:48;;;;;;;7.10;3.85;;;;;;;;;;4951896;28;20031;-71
2023/01/27 11:51:20;;;;;;;9.75;4.20;;;;;;;;;;4957608;28;20038;-71
2023/01/27 11:53:54;;;;;;;6.93;3.60;;;;;;;;;;4987319;28;20027;-71
2023/01/27 11:56:20;;;;;;;10.68;4.47;;;;;;;;;;4965223;28;20039;-71
2023/01/27 11:58:58;;;;;;;10.07;3.42;;;;;;;;;;4952467;28;20110;-71
2023/01/27 12:01:38;;;;;;;10.10;3.88;;;;;;;;;;4964927;28;20039;-71
2023/01/27 12:04:10;;;;;;;9.50;4.25;;;;;;;;;;4954553;28;20030;-71
2023/01/27 12:06:43;;;;;;;5.85;2.83;;;;;;;;;;4959475;28;20014;-71
2023/01/27 12:09:38;;;;;;;7.53;3.63;;;;;;;;;;4956470;28;20023;-71
2023/01/27 12:12:25;;;;;;;9.52;4.18;;;;;;;;;;4945035;28;20046;-71
2023/01/27 12:14:54;;;;;;;9.07;4.25;;;;;;;;;;4958031;28;20186;-71
2023/01/27 12:17:28;;;;;;;10.80;4.25;;;;;;;;;;4966043;28;20039;-71
2023/01/27 12:19:58;;;;;;;8.98;3.50;;;;;;;;;;4958712;28;20030;-71
2023/01/27 12:22:27;;;;;;;8.25;3.42;;;;;;;;;;4960375;28;20038;-71
2023/01/27 12:24:56;;;;;;;9.15;3.80;;;;;;;;;;4960910;28;20122;-71
2023/01/27 12:27:26;;;;;;;7.90;3.83;;;;;;;;;;4958941;28;20489;-71
2023/01/27 12:29:56;;;;;;;6.15;3.13;;;;;;;;;;4957821;28;20109;-71
2023/01/27 12:32:40;;;;;;;7.97;3.40;;;;;;;;;;4941106;28;20042;-71
2023/01/27 12:35:20;;;;;;;6.97;3.15;;;;;;;;;;4958424;28;20470;-71
2023/01/27 12:37:48;;;;;;;5.93;2.83;;;;;;;;;;4959933;28;20042;-71
2023/01/27 12:40:27;;;;;;;5.65;3.00;;;;;;;;;;4964375;28;20129;-71
2023/01/27 12:43:01;;;;;;;9.27;3.95;;;;;;;;;;4963573;28;20035;-71
2023/01/27 12:45:33;;;;;;;7.18;3.20;;;;;;;;;;4965125;28;20027;-71
2023/01/27 12:48:07;;;;;;;7.53;2.97;;;;;;;;;;4966387;28;20019;-71
2023/01/27 12:50:36;;;;;;;9.02;3.10;;;;;;;;;;4964223;28;20050;-71
2023/01/27 12:53:11;;;;;;;8.30;3.65;;;;;;;;;;4962825;28;20043;-71
2023/01/27 12:55:43;;;;;;;6.10;3.08;;;;;;;;;;4947014;28;20031;-71
2023/01/27 12:58:30;;;;;;;6.00;3.08;;;;;;;;;;4975882;28;20051;-71
2023/01/27 13:00:57;;;;;;;8.63;3.05;;;;;;;;;;4963341;28;20053;-70
2023/01/27 13:03:24;;;;;;;6.38;3.20;;;;;;;;;;4941684;28;20610;-72
2023/01/27 13:05:54;;;;;;;6.32;3.38;;;;;;;;;;4961493;28;20740;-72
2023/01/27 13:08:21;;;;;;;6.88;3.25;;;;;;;;;;4960609;28;20043;-71
2023/01/27 13:10:55;;;;;;;4.85;2.53;;;;;;;;;;4965383;28;20130;-72
2023/01/27 13:13:27;;;;;;;6.68;3.30;;;;;;;;;;4966088;28;20578;-71
2023/01/27 13:15:56;;;;;;;6.93;3.00;;;;;;;;;;4965171;28;20562;-72
2023/01/27 13:18:22;;;;;;;6.50;3.35;;;;;;;;;;4965981;28;20030;-71
2023/01/27 13:20:53;;;;;;;6.00;3.00;;;;;;;;;;4959442;28;20027;-71
2023/01/27 13:23:27;;;;;;;10.38;3.35;;;;;;;;;;4958865;28;20094;-71
2023/01/27 13:26:04;;;;;;;;;;;;;;;;;;4961676;28;20111;-71
2023/01/27 13:28:40;;;;;;;5.70;2.60;;;;;;;;;;4958018;28;20410;-70
2023/01/27 13:31:12;;;;;;;6.35;2.70;;;;;;;;;;4960968;28;20126;-70
2023/01/27 13:33:43;;;;;;;5.85;2.72;;;;;;;;;;4960030;28;20030;-70
2023/01/27 13:36:26;;;;;;;5.88;2.95;;;;;;;;;;4963865;28;20027;-70
2023/01/27 13:38:59;;;;;;;6.07;2.92;;;;;;;;;;4958047;28;20051;-70
2023/01/27 13:41:38;;;;;;;8.35;3.33;;;;;;;;;;4977613;28;20662;-70
2023/01/27 13:44:12;;;;;;;5.65;2.80;;;;;;;;;;4960799;28;20042;-70
2023/01/27 13:46:39;;;;;;;5.80;2.53;;;;;;;;;;4956327;28;20050;-71
2023/01/27 13:49:31;;;;;;;6.07;2.78;;;;;;;;;;4963031;28;20156;-70
2023/01/27 13:51:56;;;;;;;7.13;2.60;;;;;;;;;;4965133;28;20054;-70
2023/01/27 13:54:24;;;;;;;6.93;3.33;;;;;;;;;;4964359;28;20081;-70
2023/01/27 13:57:04;;;;;;;6.90;3.22;;;;;;;;;;4962688;28;20026;-70
2023/01/27 13:59:44;;;;;;;9.13;3.72;;;;;;;;;;4960848;28;20043;-70
2023/01/27 14:02:28;;;;;;;5.70;2.72;;;;;;;;;;4961390;28;20038;-70
2023/01/27 14:05:31;;;;;;;7.60;4.05;;;;;;;;;;4958003;28;20038;-70
2023/01/27 14:08:15;;;;;;;8.40;3.67;;;;;;;;;;4965225;28;20085;-71
2023/01/27 14:10:59;;;;;;;8.27;4.03;;;;;;;;;;4964171;28;20043;-70
2023/01/27 14:13:42;;;;;;;5.53;2.92;;;;;;;;;;4966587;28;20060;-70
2023/01/27 14:16:30;;;;;;;6.13;3.13;;;;;;;;;;4947232;28;20077;-70
2023/01/27 14:19:04;;;;;;;7.05;2.90;;;;;;;;;;4944495;28;20075;-71
2023/01/27 14:21:39;;;;;;;8.10;3.55;;;;;;;;;;4965766;28;20105;-71
2023/01/27 14:24:52;;;;;;;5.50;2.85;;;;;;;;;;4962902;28;20039;-71
2023/01/27 14:27:31;;;;;;;5.88;3.47;;;;;;;;;;4958507;28;20134;-71
2023/01/27 14:30:16;;;;;;;6.85;2.88;;;;;;;;;;4956970;28;20069;-70
2023/01/27 14:33:14;;;;;;;6.90;3.20;;;;;;;;;;4967280;28;20031;-70
2023/01/27 14:36:07;;;;;;;7.70;3.92;;;;;;;;;;4962203;28;20043;-70
2023/01/27 14:38:41;;;;;;;4.22;2.45;;;;;;;;;;4963537;28;20058;-70
2023/01/27 14:41:21;;;;;;;3.95;2.22;;;;;;;;;;4947560;28;20039;-70
2023/01/27 14:43:59;;;;;;;6.28;2.92;;;;;;;;;;4963934;28;20074;-70
2023/01/27 14:46:39;;;;;;;6.28;2.78;;;;;;;;;;4948956;28;20047;-70
2023/01/27 14:49:28;;;;;;;7.32;3.65;;;;;;;;;;4954609;28;20057;-71
2023/01/27 14:52:00;;;;;;;4.32;2.15;;;;;;;;;;4946319;28;20043;-70
2023/01/27 14:54:53;;;;;;;5.22;2.67;;;;;;;;;;4962849;28;20030;-70
2023/01/27 14:57:44;;;;;;;7.17;3.30;;;;;;;;;;4954244;28;20134;-71
2023/01/27 15:00:33;;;;;;;4.13;2.33;;;;;;;;;;4953001;28;20523;-70
2023/01/27 15:03:24;;;;;;;4.50;2.13;;;;;;;;;;4965993;28;20047;-70
2023/01/27 15:06:18;;;;;;;6.47;2.58;;;;;;;;;;4966067;28;20039;-70
2023/01/27 15:09:03;;;;;;;6.90;3.17;;;;;;;;;;4942094;28;20042;-70
2023/01/27 15:11:56;;;;;;;7.85;3.85;;;;;;;;;;4954101;28;20043;-71
2023/01/27 15:14:43;;;;;;;5.53;2.72;;;;;;;;;;4975375;28;20039;-71
2023/01/27 15:17:27;;;;;;;5.68;3.03;;;;;;;;;;4964397;28;20508;-70
2023/01/27 15:19:55;;;;;;;;;;;;;;;;;;4964089;28;20727;-70
2023/01/27 15:22:33;;;;;;;6.05;3.08;;;;;;;;;;4949919;28;19921;-70
2023/01/27 15:25:19;;;;;;;4.80;2.53;;;;;;;;;;4964174;28;20118;-70
2023/01/27 15:27:47;;;;;;;6.88;2.80;;;;;;;;;;4960780;28;20833;-70
2023/01/27 15:30:24;;;;;;;7.63;3.08;;;;;;;;;;4967993;28;20049;-71
2023/01/27 15:32:50;;;;;;;7.30;3.60;;;;;;;;;;4955813;28;20047;-70
2023/01/27 15:35:30;;;;;;;10.77;3.40;;;;;;;;;;4966188;28;20054;-70
2023/01/27 15:38:04;;;;;;;5.10;2.83;;;;;;;;;;4963498;28;20050;-70